YCBG weather

Hobart Cambridge Airport
Tasmania, Australia

Public forecast

Using degrees Celsius for public forecast. Weather courtesy of forecast.io.

METAR (pilot weather report)

Closest report is Hobart International Airport, 1.6 nm (3.0 km) ESE. Retrieved 2018/07/18 10:30 UTC (0 seconds ago):

YMHB 181030Z 34011KT 9999 VCSH FEW025 SCT085 BKN120 12/06 Q0999

TAF (pilot weather forecast)

Forecast is more than 12 hours old.

Closest forecast is Hobart International Airport, 1.6 nm (3.0 km) ESE. Retrieved 2018/07/17 18:36 UTC (16 hours ago):

TAF YMHB 171729Z 1718/1818 35008KT 9999 SCT035 FM172100 35012KT 9999 SCT035 FM180300 34015G25KT 9999 SCT035 FM180300 33015G25KT 9999 -SHRA SCT025 BKN040